Quetta Weather



Quetta's Current Weather

Temprature 0.23000000000002o scattered clouds

scattered clouds

Rain: 0 %

Min Temprature0.23000000000002o
Max Temprature0.23000000000002o
Humidity88
Wind Speed2.37 m/h
Sun Rise07:25:34
Sun Set18:03:15
Current Time: 27-Jan-2020 19:01:05
Lat/Lon: 30.2, 67.01




Quetta's Geo Location



Quetta's Weather Forecast

Time Overall Temp Min Temp Max Temp Humidity Wind Speed Rain
27-Jan-2020 (Mon)
20:00:00 light snow 0.230 0.230 0.230 88 2.37 m/h 0 %
23:00:00 light snow -0.940 -0.940 -0.940 92 1.81 m/h 0 %
28-Jan-2020 (Tue)
02:00:00 light snow -0.560 -0.560 -0.560 93 2.05 m/h 0 %
05:00:00 broken clouds -0.940 -0.940 -0.940 93 2.21 m/h 0 %
08:00:00 light snow -0.760 -0.760 -0.760 91 2.22 m/h 0 %
11:00:00 broken clouds 0.810 0.810 0.810 75 2.76 m/h 0 %
14:00:00 overcast clouds 1.690 1.690 1.690 71 3.48 m/h 0 %
17:00:00 overcast clouds 1.550 1.550 1.550 71 3.15 m/h 0 %
20:00:00 broken clouds 1.070 1.070 1.070 72 2.81 m/h 0 %
23:00:00 scattered clouds -0.400 -0.400 -0.400 79 2.35 m/h 0 %
29-Jan-2020 (Wed)
02:00:00 clear sky -1.330 -1.330 -1.330 88 2.32 m/h 0 %
05:00:00 clear sky -1.960 -1.960 -1.960 95 2.57 m/h 0 %
08:00:00 scattered clouds -2.000 -2.000 -2.000 89 2.19 m/h 0 %
11:00:00 scattered clouds 0.630 0.630 0.630 63 2.13 m/h 0 %
14:00:00 clear sky 3.030 3.030 3.030 47 2.32 m/h 0 %
17:00:00 clear sky 3.100 3.100 3.100 48 1.85 m/h 0 %
20:00:00 clear sky 0.450 0.450 0.450 64 1.32 m/h 0 %
23:00:00 clear sky -0.300 -0.300 -0.300 68 0.78 m/h 0 %
30-Jan-2020 (Thu)
02:00:00 clear sky -0.530 -0.530 -0.530 66 0.84 m/h 0 %
05:00:00 broken clouds -0.450 -0.450 -0.450 56 0.81 m/h 0 %
08:00:00 few clouds 0.330 0.330 0.330 41 1.32 m/h 0 %
11:00:00 clear sky 4.350 4.350 4.350 27 2.34 m/h 0 %
14:00:00 clear sky 5.490 5.490 5.490 32 2.83 m/h 0 %
17:00:00 clear sky 4.750 4.750 4.750 40 2.24 m/h 0 %
20:00:00 clear sky 1.320 1.320 1.320 57 2.07 m/h 0 %
23:00:00 clear sky 0.400 0.400 0.400 58 1.92 m/h 0 %
31-Jan-2020 (Fri)
02:00:00 scattered clouds 0.530 0.530 0.530 57 1.3 m/h 0 %
05:00:00 broken clouds 0.390 0.390 0.390 58 0.4 m/h 0 %
08:00:00 few clouds 0.480 0.480 0.480 56 1.32 m/h 0 %
11:00:00 few clouds 3.030 3.030 3.030 44 2.85 m/h 0 %
14:00:00 clear sky 4.230 4.230 4.230 44 4.6 m/h 0 %
17:00:00 clear sky 3.960 3.960 3.960 42 3.77 m/h 0 %
20:00:00 clear sky 1.350 1.350 1.350 58 1.9 m/h 0 %
23:00:00 clear sky 0.250 0.250 0.250 59 1.25 m/h 0 %
01-Feb-2020 (Sat)
02:00:00 clear sky -0.070 -0.070 -0.070 56 1.15 m/h 0 %
05:00:00 clear sky -0.460 -0.460 -0.460 54 0.82 m/h 0 %
08:00:00 clear sky 0.170 0.170 0.170 49 0.84 m/h 0 %
11:00:00 clear sky 5.670 5.670 5.670 25 1.72 m/h 0 %
14:00:00 clear sky 7.220 7.220 7.220 26 2.64 m/h 0 %
17:00:00 clear sky 6.430 6.430 6.430 31 1.96 m/h 0 %

Famous Cities (61)